Time;durP1;ratioP1;P1;durP2;ratioP2;P2;SDS_P1;SDS_P2;PMS_P1;PMS_P2;Temp;Humidity;BMP_temperature;BMP_pressure;BME280_temperature;BME280_humidity;BME280_pressure;Samples;Min_cycle;Max_cycle;Signal;HPM_P1;HPM_P2
2024/02/11 00:00:28;;;;;;;9.27;6.90;;;10.70;99.90;;;;;;5046253;28;20446;-75
2024/02/11 00:02:55;;;;;;;8.60;7.17;;;10.70;99.90;;;;;;5048961;28;20466;-75
2024/02/11 00:05:21;;;;;;;10.27;8.40;;;10.70;99.90;;;;;;5047735;28;20439;-74
2024/02/11 00:07:48;;;;;;;9.67;8.00;;;10.70;99.90;;;;;;5048430;28;20454;-74
2024/02/11 00:10:14;;;;;;;12.77;7.67;;;10.70;99.90;;;;;;5029830;28;20212;-75
2024/02/11 00:12:39;;;;;;;10.33;8.27;;;10.70;99.90;;;;;;5047835;28;20829;-75
2024/02/11 00:15:07;;;;;;;13.20;8.10;;;10.80;99.90;;;;;;5043527;28;20534;-75
2024/02/11 00:17:37;;;;;;;14.10;7.63;;;10.70;99.90;;;;;;5045211;28;20222;-75
2024/02/11 00:20:05;;;;;;;14.40;8.87;;;10.70;99.90;;;;;;5061079;28;21011;-75
2024/02/11 00:22:33;;;;;;;9.13;7.70;;;10.70;99.90;;;;;;5046842;28;20828;-75
2024/02/11 00:25:00;;;;;;;11.13;8.50;;;10.70;99.90;;;;;;5046120;28;20462;-75
2024/02/11 00:27:26;;;;;;;10.37;8.10;;;10.70;99.90;;;;;;5044732;28;20473;-75
2024/02/11 00:29:52;;;;;;;10.93;8.07;;;10.60;99.90;;;;;;5048133;28;20967;-75
2024/02/11 00:32:18;;;;;;;10.60;7.80;;;10.50;99.90;;;;;;5051793;28;20219;-76
2024/02/11 00:34:44;;;;;;;10.77;8.53;;;10.50;99.90;;;;;;5045122;28;20641;-76
2024/02/11 00:37:12;;;;;;;12.50;8.40;;;10.50;99.90;;;;;;5042336;28;20463;-75
2024/02/11 00:39:38;;;;;;;14.30;7.40;;;10.50;99.90;;;;;;5047539;28;20277;-76
2024/02/11 00:42:04;;;;;;;10.97;7.03;;;10.60;99.90;;;;;;5050377;28;20564;-75
2024/02/11 00:44:34;;;;;;;13.07;9.13;;;10.60;99.90;;;;;;5045371;28;20216;-75
2024/02/11 00:47:01;;;;;;;12.47;8.13;;;10.60;99.90;;;;;;5047587;28;20824;-75
2024/02/11 00:49:27;;;;;;;10.97;7.50;;;10.60;99.90;;;;;;5027332;28;20991;-75
2024/02/11 00:51:56;;;;;;;9.40;7.37;;;10.60;99.90;;;;;;5056313;28;20488;-75
2024/02/11 00:54:21;;;;;;;11.33;8.27;;;10.70;99.90;;;;;;5046274;28;20454;-74
2024/02/11 00:56:54;;;;;;;11.30;8.10;;;10.70;99.90;;;;;;5045447;28;20461;-75
2024/02/11 00:59:20;;;;;;;10.80;7.77;;;10.70;99.90;;;;;;5049736;28;20219;-74
2024/02/11 01:01:46;;;;;;;15.10;8.03;;;10.70;99.90;;;;;;5045277;28;20462;-76
2024/02/11 01:04:11;;;;;;;9.70;7.50;;;10.70;99.90;;;;;;5048320;28;20215;-75
2024/02/11 01:06:37;;;;;;;13.60;8.03;;;10.70;99.90;;;;;;5049874;28;23284;-76
2024/02/11 01:09:03;;;;;;;13.43;7.90;;;10.70;99.90;;;;;;5040548;28;20695;-75
2024/02/11 01:11:29;;;;;;;12.13;8.10;;;10.70;99.90;;;;;;5053854;28;20223;-75
2024/02/11 01:13:55;;;;;;;10.40;7.67;;;10.70;99.90;;;;;;5049294;28;20438;-76
2024/02/11 01:16:21;;;;;;;14.93;8.73;;;10.70;99.90;;;;;;5069615;28;20210;-76
2024/02/11 01:18:46;;;;;;;11.70;8.47;;;10.70;99.90;;;;;;5050395;28;20212;-76
2024/02/11 01:21:13;;;;;;;11.80;8.80;;;10.70;99.90;;;;;;5050061;28;20270;-76
2024/02/11 01:23:39;;;;;;;11.80;8.87;;;10.70;99.90;;;;;;5048855;28;20304;-75
2024/02/11 01:26:04;;;;;;;10.33;7.97;;;10.70;99.90;;;;;;5061196;28;20530;-75
2024/02/11 01:28:30;;;;;;;7.70;6.80;;;10.70;99.90;;;;;;5053780;28;20306;-75
2024/02/11 01:30:57;;;;;;;13.33;8.63;;;10.70;99.90;;;;;;5051862;28;20234;-76
2024/02/11 01:33:23;;;;;;;10.70;8.87;;;10.70;99.90;;;;;;5054366;28;20243;-74
2024/02/11 01:35:49;;;;;;;10.23;7.63;;;10.70;99.90;;;;;;5057550;28;20480;-75
2024/02/11 01:38:15;;;;;;;12.87;9.10;;;10.60;99.90;;;;;;5049694;28;20204;-75
2024/02/11 01:40:40;;;;;;;8.33;6.80;;;10.60;99.90;;;;;;5054471;28;20974;-76
2024/02/11 01:43:07;;;;;;;11.50;7.47;;;10.60;99.90;;;;;;5049746;28;20219;-75
2024/02/11 01:45:35;;;;;;;9.67;7.40;;;10.60;99.90;;;;;;5031992;28;20212;-76
2024/02/11 01:48:04;;;;;;;9.87;7.07;;;10.60;99.90;;;;;;5049082;28;20499;-75
2024/02/11 01:50:33;;;;;;;11.10;7.10;;;10.60;99.90;;;;;;5048247;28;20511;-75
2024/02/11 01:52:59;;;;;;;9.83;6.57;;;10.60;99.90;;;;;;5037577;28;21017;-75
2024/02/11 01:55:26;;;;;;;11.60;7.60;;;10.60;99.90;;;;;;5045349;28;20490;-76
2024/02/11 01:57:54;;;;;;;9.20;7.03;;;10.60;99.90;;;;;;5037579;28;20462;-76
2024/02/11 02:00:20;;;;;;;10.63;8.17;;;10.50;99.90;;;;;;5048633;28;20454;-75
2024/02/11 02:02:49;;;;;;;14.80;8.37;;;10.40;99.90;;;;;;5047687;28;20466;-75
2024/02/11 02:05:15;;;;;;;10.53;7.57;;;10.30;99.90;;;;;;5041850;28;20454;-75
2024/02/11 02:07:42;;;;;;;12.80;7.93;;;10.20;99.90;;;;;;5046830;28;20454;-76
2024/02/11 02:10:08;;;;;;;9.70;7.07;;;10.20;99.90;;;;;;5045428;28;20474;-75
2024/02/11 02:12:35;;;;;;;9.27;6.90;;;10.20;99.90;;;;;;5051772;28;20533;-76
2024/02/11 02:15:01;;;;;;;8.33;5.93;;;10.20;99.90;;;;;;5061011;28;20460;-77
2024/02/11 02:17:27;;;;;;;11.43;7.60;;;10.30;99.90;;;;;;5044562;28;20458;-75
2024/02/11 02:19:52;;;;;;;7.00;5.90;;;10.40;99.90;;;;;;5050136;28;20439;-75
2024/02/11 02:22:19;;;;;;;8.33;7.00;;;10.40;99.90;;;;;;5044611;28;20259;-76
2024/02/11 02:24:45;;;;;;;7.33;5.87;;;10.50;99.90;;;;;;5050504;28;20222;-76
2024/02/11 02:27:14;;;;;;;8.07;6.80;;;10.50;99.90;;;;;;5055906;28;20464;-76
2024/02/11 02:29:40;;;;;;;5.93;5.43;;;10.50;99.90;;;;;;5048924;28;20219;-76
2024/02/11 02:32:06;;;;;;;9.93;6.50;;;10.50;99.90;;;;;;5049625;28;20520;-76
2024/02/11 02:34:32;;;;;;;6.90;5.23;;;10.50;99.90;;;;;;5042830;28;20227;-75
2024/02/11 02:36:58;;;;;;;7.33;5.17;;;10.50;99.90;;;;;;5054453;28;20215;-75
2024/02/11 02:39:24;;;;;;;10.23;6.13;;;10.50;99.90;;;;;;5048125;28;20222;-75
2024/02/11 02:41:50;;;;;;;9.27;5.07;;;10.50;99.90;;;;;;5049315;28;20227;-75
2024/02/11 02:44:16;;;;;;;6.23;4.70;;;10.40;99.90;;;;;;5032288;28;20454;-76
2024/02/11 02:46:41;;;;;;;9.03;4.80;;;10.40;99.90;;;;;;5051658;28;20227;-76
2024/02/11 02:49:07;;;;;;;3.93;3.50;;;10.30;99.90;;;;;;5052935;28;20238;-76
2024/02/11 02:51:33;;;;;;;5.23;3.80;;;10.30;99.90;;;;;;5047237;28;20293;-76
2024/02/11 02:54:03;;;;;;;4.50;3.00;;;10.20;99.90;;;;;;5048901;28;20223;-76
2024/02/11 02:56:31;;;;;;;4.97;3.47;;;10.20;99.90;;;;;;5046126;28;20454;-75
2024/02/11 02:58:57;;;;;;;3.60;2.20;;;10.10;99.90;;;;;;5064622;28;20458;-76
2024/02/11 03:01:26;;;;;;;2.20;1.63;;;9.90;99.90;;;;;;5050427;28;20568;-75
2024/02/11 03:03:52;;;;;;;1.20;1.00;;;9.80;99.90;;;;;;5045181;28;20451;-75
2024/02/11 03:06:18;;;;;;;1.10;0.90;;;9.70;99.90;;;;;;5052037;28;20450;-74
2024/02/11 03:08:43;;;;;;;0.90;0.70;;;9.70;99.90;;;;;;5051555;28;20443;-75
2024/02/11 03:11:09;;;;;;;0.60;0.60;;;9.60;99.90;;;;;;5053776;28;20348;-74
2024/02/11 03:13:34;;;;;;;0.50;0.50;;;9.50;99.90;;;;;;5055309;28;20297;-76
2024/02/11 03:16:00;;;;;;;1.37;0.80;;;9.50;99.90;;;;;;5047746;28;20239;-75
2024/02/11 03:18:26;;;;;;;0.63;0.63;;;9.40;99.90;;;;;;5051738;28;20223;-76
2024/02/11 03:20:51;;;;;;;0.80;0.60;;;9.40;99.90;;;;;;5033933;28;20216;-75
2024/02/11 03:23:17;;;;;;;0.63;0.63;;;9.30;99.90;;;;;;5038143;28;20212;-75
2024/02/11 03:25:43;;;;;;;0.53;0.53;;;9.30;99.90;;;;;;5048773;28;20220;-75
2024/02/11 03:28:11;;;;;;;0.73;0.73;;;9.30;99.90;;;;;;5050130;28;20240;-75
2024/02/11 03:30:36;;;;;;;0.70;0.70;;;9.20;99.90;;;;;;5032064;28;20222;-75
2024/02/11 03:33:02;;;;;;;0.60;0.57;;;9.20;99.90;;;;;;5053091;28;20445;-76
2024/02/11 03:35:28;;;;;;;0.90;0.73;;;9.30;99.90;;;;;;5048157;28;20208;-75
2024/02/11 03:37:53;;;;;;;0.80;0.77;;;9.20;99.90;;;;;;5054261;28;20219;-76
2024/02/11 03:40:19;;;;;;;1.47;0.80;;;9.10;99.90;;;;;;5060341;28;20227;-76
2024/02/11 03:42:45;;;;;;;0.80;0.80;;;9.00;99.90;;;;;;5047191;28;20235;-75
2024/02/11 03:45:11;;;;;;;1.10;1.07;;;8.80;99.90;;;;;;5045961;28;20218;-76
2024/02/11 03:47:41;;;;;;;1.23;1.13;;;8.90;99.90;;;;;;5045083;28;20455;-76
2024/02/11 03:50:10;;;;;;;0.70;0.70;;;8.80;99.90;;;;;;5046978;28;20537;-75
2024/02/11 03:52:36;;;;;;;1.00;0.90;;;8.80;99.90;;;;;;5045126;28;20455;-76
2024/02/11 03:55:07;;;;;;;2.40;1.17;;;8.90;99.90;;;;;;5045564;28;20450;-75
2024/02/11 03:57:33;;;;;;;1.40;1.20;;;8.90;99.90;;;;;;5027823;28;20529;-75
2024/02/11 03:59:58;;;;;;;1.03;1.00;;;8.80;99.90;;;;;;5045642;28;20766;-75
2024/02/11 04:02:24;;;;;;;0.90;0.90;;;8.70;99.90;;;;;;5046823;28;20898;-76
2024/02/11 04:04:51;;;;;;;1.47;1.30;;;8.70;99.90;;;;;;5045976;28;20242;-75
2024/02/11 04:07:19;;;;;;;0.90;0.90;;;8.70;99.90;;;;;;5043241;28;20281;-76
2024/02/11 04:09:46;;;;;;;1.50;1.40;;;8.70;99.90;;;;;;5046582;28;20478;-76
2024/02/11 04:12:12;;;;;;;2.33;1.67;;;8.70;99.90;;;;;;5045263;28;20455;-76
2024/02/11 04:14:40;;;;;;;2.10;1.33;;;8.70;99.90;;;;;;5029708;28;21027;-75
2024/02/11 04:17:12;;;;;;;2.23;1.50;;;8.70;99.90;;;;;;5045532;28;20215;-75
2024/02/11 04:19:44;;;;;;;1.73;1.63;;;8.70;99.90;;;;;;5044181;28;20466;-75
2024/02/11 04:22:14;;;;;;;1.60;1.43;;;8.70;99.90;;;;;;5031158;28;20470;-76
2024/02/11 04:24:45;;;;;;;1.50;1.40;;;8.70;99.90;;;;;;5044544;28;20458;-76
2024/02/11 04:27:14;;;;;;;1.23;1.07;;;8.60;99.90;;;;;;5045856;28;20543;-75
2024/02/11 04:29:44;;;;;;;1.60;1.50;;;8.60;99.90;;;;;;5043072;28;20482;-76
2024/02/11 04:32:11;;;;;;;2.30;1.80;;;8.80;99.90;;;;;;5043654;28;20498;-76
2024/02/11 04:34:41;;;;;;;2.73;1.90;;;8.60;99.90;;;;;;5044470;28;20458;-75
2024/02/11 04:37:07;;;;;;;1.83;1.57;;;8.60;99.90;;;;;;5043043;28;20542;-76
2024/02/11 04:39:33;;;;;;;1.43;1.33;;;8.50;99.90;;;;;;5043051;28;20517;-75
2024/02/11 04:41:59;;;;;;;1.60;1.50;;;8.40;99.90;;;;;;5059900;28;20479;-75
2024/02/11 04:44:30;;;;;;;2.07;1.53;;;8.40;99.90;;;;;;5043954;28;20262;-76
2024/02/11 04:46:57;;;;;;;1.73;1.50;;;8.40;99.90;;;;;;5048508;28;20214;-75
2024/02/11 04:49:22;;;;;;;2.93;1.90;;;8.30;99.90;;;;;;5029986;28;20459;-75
2024/02/11 04:51:52;;;;;;;1.70;1.60;;;8.30;99.90;;;;;;5043419;28;20513;-76
2024/02/11 04:54:18;;;;;;;2.40;1.53;;;8.30;99.90;;;;;;5033286;28;20216;-77
2024/02/11 04:56:47;;;;;;;1.33;1.23;;;8.30;99.90;;;;;;5047269;28;20454;-75
2024/02/11 04:59:15;;;;;;;1.70;1.60;;;8.30;99.90;;;;;;5027442;28;20234;-75
2024/02/11 05:01:44;;;;;;;1.73;1.63;;;8.30;99.90;;;;;;5045529;28;20466;-75
2024/02/11 05:04:10;;;;;;;2.20;1.77;;;8.30;99.90;;;;;;5045189;28;20513;-75
2024/02/11 05:06:40;;;;;;;1.60;1.50;;;8.20;99.90;;;;;;5040684;28;20454;-75
2024/02/11 05:09:07;;;;;;;1.60;1.43;;;8.20;99.90;;;;;;5042120;28;20493;-75
2024/02/11 05:11:32;;;;;;;2.20;1.17;;;8.30;99.90;;;;;;5048069;28;20519;-75
2024/02/11 05:13:58;;;;;;;1.20;1.10;;;8.20;99.90;;;;;;5044853;28;20451;-76
2024/02/11 05:16:28;;;;;;;1.87;1.20;;;8.30;99.90;;;;;;5046535;28;20204;-75
2024/02/11 05:18:54;;;;;;;2.23;1.50;;;8.30;99.90;;;;;;5027268;28;20469;-77
2024/02/11 05:21:20;;;;;;;1.90;1.60;;;8.40;99.90;;;;;;5029536;28;20528;-76
2024/02/11 05:23:48;;;;;;;2.87;1.87;;;8.40;99.90;;;;;;5046749;28;20458;-75
2024/02/11 05:26:17;;;;;;;2.20;1.40;;;8.40;99.90;;;;;;5044728;28;20728;-75
2024/02/11 05:28:43;;;;;;;2.27;1.90;;;8.40;99.90;;;;;;5027232;28;20458;-75
2024/02/11 05:31:17;;;;;;;4.33;2.40;;;8.30;99.90;;;;;;5047107;28;20611;-76
2024/02/11 05:33:43;;;;;;;1.80;1.70;;;8.30;99.90;;;;;;5045905;28;20954;-75
2024/02/11 05:36:09;;;;;;;3.20;2.00;;;8.40;99.90;;;;;;5025849;28;20447;-75
2024/02/11 05:38:39;;;;;;;1.50;1.40;;;8.30;99.90;;;;;;5026357;28;20235;-75
2024/02/11 05:41:07;;;;;;;1.67;1.57;;;8.40;99.90;;;;;;5045699;28;20257;-76
2024/02/11 05:43:33;;;;;;;1.83;1.60;;;8.50;99.90;;;;;;5044006;28;20947;-75
2024/02/11 05:45:59;;;;;;;1.57;1.47;;;8.60;99.90;;;;;;5030740;28;20525;-75
2024/02/11 05:48:24;;;;;;;2.67;1.70;;;8.70;99.90;;;;;;5042237;28;20585;-76
2024/02/11 05:50:50;;;;;;;2.70;1.80;;;8.70;99.90;;;;;;5064253;28;20207;-75
2024/02/11 05:53:16;;;;;;;3.30;2.00;;;8.70;99.90;;;;;;5048484;28;20211;-75
2024/02/11 05:55:42;;;;;;;4.40;2.17;;;8.50;99.90;;;;;;5050406;28;20211;-75
2024/02/11 05:58:08;;;;;;;2.83;2.10;;;8.50;99.90;;;;;;5046552;28;20239;-75
2024/02/11 06:00:36;;;;;;;4.00;2.20;;;8.30;99.90;;;;;;5031459;28;20887;-76
2024/02/11 06:03:02;;;;;;;4.30;2.63;;;8.40;99.90;;;;;;5047579;28;20474;-75
2024/02/11 06:05:28;;;;;;;3.87;2.40;;;8.30;99.90;;;;;;5047001;28;20473;-75
2024/02/11 06:07:59;;;;;;;3.60;2.47;;;8.40;99.90;;;;;;5048734;28;20761;-75
2024/02/11 06:10:27;;;;;;;3.83;2.83;;;8.50;99.90;;;;;;5047819;28;20208;-73
2024/02/11 06:12:53;;;;;;;4.10;2.50;;;8.60;99.90;;;;;;5027338;28;20798;-75
2024/02/11 06:15:23;;;;;;;2.30;2.10;;;8.60;99.90;;;;;;5032522;28;20486;-74
2024/02/11 06:17:50;;;;;;;3.50;2.30;;;8.50;99.90;;;;;;5031244;28;20549;-75
2024/02/11 06:20:18;;;;;;;4.93;3.00;;;8.40;99.90;;;;;;5046142;28;20459;-76
2024/02/11 06:22:49;;;;;;;3.80;2.33;;;8.40;99.90;;;;;;5047746;28;20461;-75
2024/02/11 06:25:16;;;;;;;2.67;2.33;;;8.30;99.90;;;;;;5046799;28;20841;-75
2024/02/11 06:27:42;;;;;;;3.03;2.60;;;8.20;99.90;;;;;;5047657;28;20461;-74
2024/02/11 06:30:12;;;;;;;5.37;2.50;;;8.20;99.90;;;;;;5031974;28;20549;-75
2024/02/11 06:32:42;;;;;;;3.57;2.87;;;8.10;99.90;;;;;;5045334;28;20458;-75
2024/02/11 06:35:10;;;;;;;3.33;2.47;;;8.30;99.90;;;;;;5043144;28;20880;-76
2024/02/11 06:37:40;;;;;;;6.30;2.60;;;8.40;99.90;;;;;;5041763;28;20509;-76
2024/02/11 06:40:10;;;;;;;7.40;2.93;;;8.30;99.90;;;;;;5048511;28;20577;-75
2024/02/11 06:42:48;;;;;;;3.80;2.50;;;8.40;99.90;;;;;;5041700;28;20473;-75
2024/02/11 06:45:14;;;;;;;3.23;2.17;;;8.40;99.90;;;;;;5046422;28;21008;-75
2024/02/11 06:47:41;;;;;;;4.07;2.80;;;8.50;99.90;;;;;;5061669;28;20454;-75
2024/02/11 06:50:09;;;;;;;6.13;3.47;;;8.50;99.90;;;;;;5045537;28;20840;-75
2024/02/11 06:52:35;;;;;;;4.27;3.20;;;8.30;99.90;;;;;;5046466;28;20536;-76
2024/02/11 06:55:10;;;;;;;5.47;3.20;;;8.20;99.90;;;;;;5049214;28;20466;-75
2024/02/11 06:57:37;;;;;;;4.47;3.80;;;8.10;99.90;;;;;;5047835;28;20616;-75
2024/02/11 07:00:08;;;;;;;4.77;3.73;;;8.30;99.90;;;;;;5048404;28;20465;-74
2024/02/11 07:02:34;;;;;;;6.50;3.80;;;8.30;99.90;;;;;;5046525;28;20900;-75
2024/02/11 07:05:00;;;;;;;7.23;3.20;;;8.50;99.90;;;;;;5047867;28;20498;-75
2024/02/11 07:07:26;;;;;;;6.77;4.40;;;8.50;99.90;;;;;;5047563;28;20551;-75
2024/02/11 07:09:52;;;;;;;9.80;4.37;;;8.40;99.90;;;;;;5045773;28;20223;-75
2024/02/11 07:12:19;;;;;;;6.50;4.57;;;8.30;99.90;;;;;;5047817;28;20289;-75
2024/02/11 07:14:45;;;;;;;8.07;4.73;;;8.20;99.90;;;;;;5044000;28;21013;-75
2024/02/11 07:17:19;;;;;;;9.83;4.67;;;8.20;99.90;;;;;;5042953;28;20834;-75
2024/02/11 07:19:45;;;;;;;5.70;4.00;;;8.10;99.90;;;;;;5045377;28;20268;-75
2024/02/11 07:22:11;;;;;;;8.80;5.07;;;8.00;99.90;;;;;;5045230;28;20508;-76
2024/02/11 07:24:37;;;;;;;14.17;7.00;;;8.10;99.90;;;;;;5044642;28;20212;-76
2024/02/11 07:27:06;;;;;;;8.67;4.73;;;8.30;99.90;;;;;;5060938;28;20483;-76
2024/02/11 07:29:33;;;;;;;11.60;6.17;;;8.20;99.90;;;;;;5026044;28;20212;-75
2024/02/11 07:31:59;;;;;;;12.10;4.77;;;8.20;99.90;;;;;;5044260;28;20816;-76
2024/02/11 07:34:26;;;;;;;6.80;4.90;;;8.20;99.90;;;;;;5044829;28;20922;-75
2024/02/11 07:36:52;;;;;;;11.17;5.37;;;8.20;99.90;;;;;;5042962;28;20459;-75
2024/02/11 07:39:18;;;;;;;14.27;5.70;;;8.30;99.90;;;;;;5044830;28;20451;-75
2024/02/11 07:41:44;;;;;;;15.60;4.53;;;8.30;99.90;;;;;;5042793;28;20250;-75
2024/02/11 07:44:12;;;;;;;6.87;4.53;;;8.30;99.90;;;;;;5029520;28;20216;-75
2024/02/11 07:46:37;;;;;;;12.80;5.73;;;8.30;99.90;;;;;;5045977;28;20230;-75
2024/02/11 07:49:06;;;;;;;12.10;5.20;;;8.20;99.90;;;;;;5046434;28;21032;-74
2024/02/11 07:51:32;;;;;;;9.40;5.43;;;8.30;99.90;;;;;;5046779;28;20212;-73
2024/02/11 07:53:58;;;;;;;8.20;5.43;;;8.20;99.90;;;;;;5027617;28;20505;-74
2024/02/11 07:56:25;;;;;;;9.43;5.07;;;8.30;99.90;;;;;;5028183;28;20219;-76
2024/02/11 07:58:50;;;;;;;11.53;5.97;;;8.40;99.90;;;;;;5028928;28;20624;-76
2024/02/11 08:01:16;;;;;;;10.47;5.20;;;8.30;99.90;;;;;;5042994;28;20466;-75
2024/02/11 08:03:42;;;;;;;9.50;5.40;;;8.30;99.90;;;;;;5042465;28;20590;-76
2024/02/11 08:06:09;;;;;;;10.97;5.13;;;8.30;99.90;;;;;;5044867;28;20216;-75
2024/02/11 08:08:38;;;;;;;14.33;5.50;;;8.40;99.90;;;;;;5047429;28;20350;-76
2024/02/11 08:11:06;;;;;;;11.80;6.20;;;8.50;99.90;;;;;;5050049;28;20441;-75
2024/02/11 08:13:35;;;;;;;10.17;7.03;;;8.50;99.90;;;;;;5050884;28;20447;-75
2024/02/11 08:16:02;;;;;;;9.73;5.67;;;8.40;99.90;;;;;;5064684;28;20447;-75
2024/02/11 08:18:29;;;;;;;19.70;6.30;;;8.40;99.90;;;;;;5044913;28;20461;-76
2024/02/11 08:20:58;;;;;;;12.73;5.13;;;8.50;99.90;;;;;;5046885;28;20475;-76
2024/02/11 08:23:27;;;;;;;8.73;5.93;;;8.60;99.90;;;;;;5043871;28;21002;-76
2024/02/11 08:25:55;;;;;;;8.70;6.23;;;8.60;99.90;;;;;;5045876;28;20489;-75
2024/02/11 08:28:20;;;;;;;7.40;4.90;;;8.60;99.90;;;;;;5052150;28;20461;-76
2024/02/11 08:30:47;;;;;;;10.60;6.20;;;8.60;99.90;;;;;;5045767;28;20450;-76
2024/02/11 08:33:12;;;;;;;11.50;6.17;;;8.60;99.90;;;;;;5045611;28;20219;-76
2024/02/11 08:35:38;;;;;;;16.27;6.90;;;8.60;99.90;;;;;;5049948;28;20455;-76
2024/02/11 08:38:03;;;;;;;6.33;4.50;;;8.60;99.90;;;;;;5049555;28;20215;-75
2024/02/11 08:40:31;;;;;;;11.10;5.60;;;8.70;99.90;;;;;;5058258;28;20215;-76
2024/02/11 08:42:57;;;;;;;11.70;5.60;;;8.60;99.90;;;;;;5047937;28;20338;-76
2024/02/11 08:45:22;;;;;;;10.93;7.10;;;8.60;99.90;;;;;;5044324;28;20530;-77
2024/02/11 08:47:48;;;;;;;11.03;6.33;;;8.60;99.90;;;;;;5048464;28;20227;-75
2024/02/11 08:50:14;;;;;;;12.63;6.40;;;8.70;99.90;;;;;;5049693;28;20211;-76
2024/02/11 08:52:44;;;;;;;8.90;5.03;;;8.70;99.90;;;;;;5046833;28;20504;-76
2024/02/11 08:55:11;;;;;;;9.23;5.97;;;8.70;99.90;;;;;;5042345;28;20216;-76
2024/02/11 08:57:37;;;;;;;8.30;5.63;;;8.80;99.90;;;;;;5045287;28;20463;-77
2024/02/11 09:00:07;;;;;;;12.33;6.40;;;8.70;99.90;;;;;;5053698;28;20454;-76
2024/02/11 09:02:33;;;;;;;12.47;5.63;;;8.70;99.90;;;;;;5048283;28;20659;-75
2024/02/11 09:04:59;;;;;;;10.33;5.70;;;8.80;99.90;;;;;;5046027;28;20450;-77
2024/02/11 09:07:25;;;;;;;9.43;5.53;;;8.70;99.90;;;;;;5044259;28;20458;-76
2024/02/11 09:09:51;;;;;;;6.87;5.67;;;8.70;99.90;;;;;;5050226;28;20442;-75
2024/02/11 09:12:17;;;;;;;9.40;5.93;;;8.70;99.90;;;;;;5043422;28;20983;-77
2024/02/11 09:14:43;;;;;;;10.30;5.20;;;8.70;99.90;;;;;;5046451;28;20772;-76
2024/02/11 09:17:10;;;;;;;8.07;5.20;;;8.80;99.90;;;;;;5054146;28;20307;-76
2024/02/11 09:19:37;;;;;;;10.03;5.50;;;8.80;99.90;;;;;;5034334;28;20450;-76
2024/02/11 09:22:05;;;;;;;8.00;4.53;;;8.80;99.90;;;;;;5032846;28;20527;-75
2024/02/11 09:24:34;;;;;;;9.27;4.90;;;8.80;99.90;;;;;;5053287;28;20673;-76
2024/02/11 09:27:00;;;;;;;9.23;5.30;;;8.80;99.90;;;;;;5034097;28;20462;-76
2024/02/11 09:29:26;;;;;;;10.43;5.63;;;8.80;99.90;;;;;;5049333;28;20457;-75
2024/02/11 09:31:52;;;;;;;7.23;4.43;;;8.80;99.90;;;;;;5049372;28;20450;-75
2024/02/11 09:34:21;;;;;;;11.37;5.33;;;8.90;99.90;;;;;;5053801;28;20243;-76
2024/02/11 09:36:47;;;;;;;10.77;4.80;;;8.90;99.90;;;;;;5034850;28;20529;-75
2024/02/11 09:39:13;;;;;;;6.27;4.57;;;8.90;99.90;;;;;;5063315;28;20549;-76
2024/02/11 09:41:39;;;;;;;6.77;4.80;;;8.90;99.90;;;;;;5051109;28;20540;-77
2024/02/11 09:44:07;;;;;;;5.50;4.53;;;8.80;99.90;;;;;;5050470;28;20511;-76
2024/02/11 09:46:36;;;;;;;6.80;3.77;;;8.90;99.90;;;;;;5035326;28;20465;-76
2024/02/11 09:49:13;;;;;;;11.10;4.13;;;8.90;99.90;;;;;;5049371;28;20970;-76
2024/02/11 09:51:40;;;;;;;6.33;3.83;;;9.00;99.90;;;;;;5063386;28;20458;-76
2024/02/11 09:54:06;;;;;;;5.53;3.57;;;9.10;99.90;;;;;;5045527;28;20459;-75
2024/02/11 09:56:32;;;;;;;9.30;3.97;;;9.10;99.90;;;;;;5045667;28;20454;-76
2024/02/11 09:58:58;;;;;;;6.67;4.13;;;9.10;99.90;;;;;;5049348;28;20536;-76
2024/02/11 10:01:24;;;;;;;7.33;3.93;;;9.20;99.90;;;;;;5046029;28;20230;-76
2024/02/11 10:03:54;;;;;;;4.67;3.40;;;9.20;99.90;;;;;;5032858;28;20504;-76
2024/02/11 10:06:32;;;;;;;6.63;4.10;;;9.20;99.90;;;;;;5047710;28;20967;-76
2024/02/11 10:08:58;;;;;;;9.40;3.17;;;9.30;99.90;;;;;;5046476;28;20451;-75
2024/02/11 10:11:25;;;;;;;4.73;3.27;;;9.30;99.90;;;;;;5050052;28;20515;-76
2024/02/11 10:13:51;;;;;;;4.27;3.30;;;9.30;99.90;;;;;;5045692;28;20219;-75
2024/02/11 10:16:17;;;;;;;3.47;2.80;;;9.30;99.90;;;;;;5060214;28;20515;-75
2024/02/11 10:18:42;;;;;;;3.10;2.63;;;9.40;99.90;;;;;;5060662;28;20617;-76
2024/02/11 10:21:08;;;;;;;3.80;3.07;;;9.40;99.90;;;;;;5046087;28;20251;-75
2024/02/11 10:23:40;;;;;;;4.20;2.43;;;9.50;99.90;;;;;;5047685;28;20215;-75
2024/02/11 10:26:09;;;;;;;4.57;2.77;;;9.50;99.90;;;;;;5048303;28;20559;-75
2024/02/11 10:28:37;;;;;;;3.40;2.23;;;9.50;99.90;;;;;;5046171;28;20494;-75
2024/02/11 10:31:04;;;;;;;3.00;2.73;;;9.50;99.90;;;;;;5044274;28;20549;-76
2024/02/11 10:33:32;;;;;;;3.70;2.47;;;9.50;99.90;;;;;;5045145;28;20455;-78
2024/02/11 10:36:01;;;;;;;3.90;2.57;;;9.50;99.90;;;;;;5044318;28;20489;-76
2024/02/11 10:38:27;;;;;;;3.93;2.90;;;9.60;99.90;;;;;;5046149;28;20507;-75
2024/02/11 10:40:54;;;;;;;3.87;2.47;;;9.60;99.90;;;;;;5049562;28;20455;-76
2024/02/11 10:43:24;;;;;;;7.00;2.63;;;9.50;99.90;;;;;;5057806;28;20277;-76
2024/02/11 10:45:54;;;;;;;3.23;2.60;;;9.60;99.90;;;;;;5044230;28;20450;-77
2024/02/11 10:48:21;;;;;;;2.83;2.53;;;9.60;99.90;;;;;;5030663;28;20463;-76
2024/02/11 10:50:54;;;;;;;4.90;3.10;;;9.60;99.90;;;;;;5060632;28;20458;-76
2024/02/11 10:53:23;;;;;;;3.50;2.40;;;9.70;99.90;;;;;;5028776;28;20470;-76
2024/02/11 10:55:50;;;;;;;5.37;3.30;;;9.70;99.90;;;;;;5044612;28;20454;-76
2024/02/11 10:58:24;;;;;;;5.23;3.00;;;9.70;99.90;;;;;;5047459;28;20458;-76
2024/02/11 11:00:51;;;;;;;3.60;2.50;;;9.70;99.90;;;;;;5048268;28;20465;-75
2024/02/11 11:03:21;;;;;;;4.40;3.33;;;9.70;99.90;;;;;;5048054;28;20465;-76
2024/02/11 11:05:47;;;;;;;4.50;2.83;;;9.70;99.90;;;;;;5043390;28;20818;-76
2024/02/11 11:08:14;;;;;;;7.00;2.77;;;9.70;99.90;;;;;;5045219;28;20482;-76
2024/02/11 11:10:40;;;;;;;3.17;2.77;;;9.80;99.90;;;;;;5029892;28;20442;-77
2024/02/11 11:13:08;;;;;;;4.20;2.90;;;9.90;99.90;;;;;;5046938;28;20446;-76
2024/02/11 11:15:34;;;;;;;4.03;2.80;;;9.90;99.90;;;;;;5045289;28;20224;-76
2024/02/11 11:18:02;;;;;;;5.47;3.40;;;9.90;99.90;;;;;;5045453;28;21022;-76
2024/02/11 11:20:27;;;;;;;7.50;3.83;;;9.90;99.90;;;;;;5044235;28;20690;-77
2024/02/11 11:22:58;;;;;;;4.20;2.83;;;9.90;99.90;;;;;;5046029;28;20477;-76
2024/02/11 11:25:31;;;;;;;2.43;2.23;;;9.90;99.90;;;;;;5044414;28;20216;-77
2024/02/11 11:28:16;;;;;;;4.60;3.00;;;10.00;99.90;;;;;;5043147;28;21086;-76
2024/02/11 11:30:43;;;;;;;4.73;3.00;;;10.00;99.90;;;;;;5030054;28;20511;-76
2024/02/11 11:33:12;;;;;;;8.13;3.10;;;10.00;99.90;;;;;;5045349;28;20462;-77
2024/02/11 11:35:38;;;;;;;5.33;2.33;;;10.00;99.90;;;;;;5047592;28;20485;-75
2024/02/11 11:38:04;;;;;;;4.87;2.90;;;10.00;99.90;;;;;;5043158;28;20853;-76
2024/02/11 11:40:32;;;;;;;4.77;3.07;;;10.00;99.90;;;;;;5027511;28;20470;-76
2024/02/11 11:42:58;;;;;;;4.13;2.87;;;10.00;99.90;;;;;;5027094;28;20310;-76
2024/02/11 11:45:23;;;;;;;5.90;3.20;;;10.00;99.90;;;;;;5038446;28;20542;-76
2024/02/11 11:47:51;;;;;;;14.40;4.03;;;10.00;99.90;;;;;;5039678;28;20227;-74
2024/02/11 11:50:19;;;;;;;4.83;2.70;;;10.00;99.90;;;;;;5044848;28;20212;-76
2024/02/11 11:52:48;;;;;;;3.17;2.60;;;10.00;99.90;;;;;;5044537;28;20447;-75
2024/02/11 11:55:14;;;;;;;3.87;2.80;;;10.00;99.90;;;;;;5045248;28;20558;-76
2024/02/11 11:57:40;;;;;;;4.13;2.70;;;10.00;99.90;;;;;;5042766;28;20475;-75
2024/02/11 12:00:10;;;;;;;4.43;2.33;;;10.10;99.90;;;;;;5041849;28;20224;-75
2024/02/11 12:02:38;;;;;;;2.87;2.10;;;10.10;99.90;;;;;;5027608;28;20473;-76
2024/02/11 12:05:08;;;;;;;2.13;1.93;;;10.20;99.90;;;;;;5026088;28;20462;-75
2024/02/11 12:07:34;;;;;;;6.27;2.90;;;10.10;99.90;;;;;;5044617;28;20275;-76
2024/02/11 12:10:00;;;;;;;2.47;2.00;;;10.10;99.90;;;;;;5044199;28;20462;-75
2024/02/11 12:12:26;;;;;;;2.90;2.60;;;10.10;99.90;;;;;;5042811;28;20215;-76
2024/02/11 12:14:52;;;;;;;3.87;1.83;;;10.10;99.90;;;;;;5045102;28;20792;-76
2024/02/11 12:17:18;;;;;;;4.97;1.80;;;10.10;99.90;;;;;;5045517;28;20538;-76
2024/02/11 12:19:44;;;;;;;3.77;2.40;;;10.10;99.90;;;;;;5043659;28;22572;-76
2024/02/11 12:22:09;;;;;;;2.87;1.90;;;10.10;99.90;;;;;;5043229;28;20216;-76
2024/02/11 12:24:41;;;;;;;1.97;1.80;;;10.10;99.90;;;;;;5043943;28;20269;-76
2024/02/11 12:27:11;;;;;;;2.73;2.20;;;10.10;99.90;;;;;;5041418;28;20294;-76
2024/02/11 12:29:37;;;;;;;3.10;1.93;;;10.10;99.90;;;;;;5026238;28;20469;-76
2024/02/11 12:32:03;;;;;;;4.13;2.70;;;10.10;99.90;;;;;;5041501;28;21017;-76
2024/02/11 12:34:29;;;;;;;4.90;3.37;;;10.10;99.90;;;;;;5026494;28;20458;-76
2024/02/11 12:36:59;;;;;;;3.07;2.23;;;10.30;99.90;;;;;;5043893;28;20461;-75
2024/02/11 12:39:30;;;;;;;2.80;2.40;;;10.40;99.90;;;;;;5042841;28;20254;-76
2024/02/11 12:41:55;;;;;;;2.77;2.57;;;10.40;99.90;;;;;;5040494;28;20465;-76
2024/02/11 12:44:22;;;;;;;5.50;3.37;;;10.40;99.90;;;;;;5045433;28;20446;-77
2024/02/11 12:46:48;;;;;;;5.30;3.10;;;10.50;99.90;;;;;;5043544;28;20592;-76
2024/02/11 12:49:14;;;;;;;2.73;2.43;;;10.50;99.90;;;;;;5040193;28;20533;-76